Terminal Aerodrome Forecast
Issued by NWS

Home | Current Version | Previous Version | Text Only | Print | Product List | Glossary Off
Versions: 1 2 3 4 5 6 7 8 9 10 11 12 13 14 15 16 17 18

000
FTUS43 KABR 210523
TAFMBG
TAF
KMBG 210523Z 2106/2206 14015KT P6SM SCT250
     FM210900 31012G19KT P6SM SCT250
     FM211200 30017G24KT P6SM VCSH BKN050
     FM211800 30015G23KT P6SM BKN100
     FM220000 29008KT P6SM SKC=

USA.gov is the U.S. government's official web portal to all federal, state and local government web resources and services.